KTXK/TXK METAR and TAF weather

Enter ICAO airport designator
Station Type Date Time Source
KTXK METAR 2020/07/05 14:53 UTC NOAA

KTXK 051453Z 15004KT 10SM OVC007 24/22 A2992 RMK AO2 CIG 006V010 SLP128 T02440222 51006


Station Type Date Time Source
KTXK Decoded METAR 2020/07/05 14:53 UTC NOAA

TEXARKANA RGNL WEBB FIELD, AR, United States (KTXK) 33-27N 093-59W 111M
Jul 05, 2020 - 10:53 AM EDT / 2020.07.05 1453 UTC
Wind: from the SSE (150 degrees) at 5 MPH (4 KT):0
Visibility: 10 mile(s):0
Sky conditions: overcast
Temperature: 75.9 F (24.4 C)
Dew Point: 72.0 F (22.2 C)
Relative Humidity: 87%
Pressure (altimeter): 29.92 in. Hg (1013 hPa)
Pressure tendency: 0.02 inches (0.6 hPa) higher than three hours ago
ob: KTXK 051453Z 15004KT 10SM OVC007 24/22 A2992 RMK AO2 CIG 006V010 SLP128 T02440222 51006
cycle: 15

Station Type Date Time Source
KTXK TAF 2020/07/05 12:59 UTC NOAA

TAF
AMD KTXK 051159Z 0512/0612 VRB04KT P6SM VCSH SCT005 SCT020 BKN035
TEMPO 0512/0516 4SM SHRA BR BKN007 BKN015
FM051700 VRB05KT P6SM VCSH SCT030 BKN035
FM051900 VRB05KT P6SM VCSH BKN040
FM060100 VRB03KT P6SM SCT045 BKN100 BKN250
FM060600 VRB03KT P6SM VCSH BKN040

Example: see airport list